Time;durP1;ratioP1;P1;durP2;ratioP2;P2;SDS_P1;SDS_P2;PMS_P1;PMS_P2;Temp;Humidity;BMP_temperature;BMP_pressure;BME280_temperature;BME280_humidity;BME280_pressure;Samples;Min_cycle;Max_cycle;Signal;HPM_P1;HPM_P2
2022/12/20 00:01:48;;;;;;;;;;;;;;;29.26;22.85;103060.44;5012319;28;1025;-20
2022/12/20 00:04:14;;;;;;;;;;;;;;;27.90;24.22;103066.00;5018443;28;1096;-20
2022/12/20 00:06:40;;;;;;;;;;;;;;;27.72;24.78;103066.59;5006602;28;1080;-20
2022/12/20 00:09:08;;;;;;;;;;;;;;;28.29;24.33;103073.50;5012681;28;1052;-20
2022/12/20 00:11:33;;;;;;;;;;;;;;;28.95;22.96;103071.34;5012132;28;1005;-20
2022/12/20 00:13:59;;;;;;;;;;;;;;;29.03;22.92;103065.28;5018650;28;1016;-20
2022/12/20 00:16:25;;;;;;;;;;;;;;;27.75;24.68;103064.50;5006236;28;1055;-20
2022/12/20 00:18:51;;;;;;;;;;;;;;;27.70;24.70;103065.88;4999433;28;1051;-20
2022/12/20 00:21:16;;;;;;;;;;;;;;;28.31;24.28;103066.13;4999237;28;1910;-20
2022/12/20 00:23:41;;;;;;;;;;;;;;;28.95;23.15;103072.22;5017932;28;1110;-20
2022/12/20 00:26:07;;;;;;;;;;;;;;;29.11;22.81;103076.28;5018173;28;2400;-20
2022/12/20 00:28:33;;;;;;;;;;;;;;;28.82;23.33;103068.91;5018621;28;1094;-20
2022/12/20 00:30:58;;;;;;;;;;;;;;;28.82;23.23;103069.78;5018331;28;1065;-20
2022/12/20 00:33:24;;;;;;;;;;;;;;;28.77;23.49;103073.88;5018396;28;1063;-19
2022/12/20 00:35:50;;;;;;;;;;;;;;;29.21;22.90;103087.13;5006908;28;1175;-20
2022/12/20 00:38:15;;;;;;;;;;;;;;;29.00;23.19;103079.94;5017127;28;1040;-20
2022/12/20 00:40:40;;;;;;;;;;;;;;;28.71;23.60;103078.84;5018073;28;1903;-20
2022/12/20 00:43:06;;;;;;;;;;;;;;;28.65;23.18;103059.56;5005416;28;1196;-20
2022/12/20 00:45:31;;;;;;;;;;;;;;;28.47;23.49;103054.81;5006209;28;1116;-20
2022/12/20 00:47:56;;;;;;;;;;;;;;;28.46;23.26;103051.25;5011931;28;1394;-20
2022/12/20 00:50:21;;;;;;;;;;;;;;;28.37;23.61;103049.38;4998991;28;876;-21
2022/12/20 00:52:47;;;;;;;;;;;;;;;28.33;23.06;103031.66;5004116;28;1048;-20
2022/12/20 00:55:12;;;;;;;;;;;;;;;28.79;22.65;103042.09;5017997;28;1917;-20
2022/12/20 00:57:37;;;;;;;;;;;;;;;27.99;23.85;103030.06;5018050;28;1144;-20
2022/12/20 01:00:03;;;;;;;;;;;;;;;27.86;24.19;103031.09;5017964;28;1898;-20
2022/12/20 01:02:28;;;;;;;;;;;;;;;28.20;23.65;103032.72;5016977;28;995;-21
2022/12/20 01:04:53;;;;;;;;;;;;;;;28.60;23.10;103033.78;5017781;28;1019;-21
2022/12/20 01:07:19;;;;;;;;;;;;;;;28.32;23.30;103022.69;5017960;28;1007;-21
2022/12/20 01:09:44;;;;;;;;;;;;;;;27.99;24.00;103017.38;5006304;28;1120;-21
2022/12/20 01:12:10;;;;;;;;;;;;;;;27.92;24.00;103023.47;5016169;28;997;-21
2022/12/20 01:14:35;;;;;;;;;;;;;;;28.12;23.56;103019.03;5017164;28;1042;-20
2022/12/20 01:17:00;;;;;;;;;;;;;;;27.95;23.79;103012.38;5013021;28;1122;-20
2022/12/20 01:19:26;;;;;;;;;;;;;;;28.04;23.66;103014.28;5008786;28;1972;-20
2022/12/20 01:21:51;;;;;;;;;;;;;;;27.98;23.81;103015.66;5017166;28;1044;-21
2022/12/20 01:24:17;;;;;;;;;;;;;;;27.94;24.04;103018.78;5007436;28;1176;-21
2022/12/20 01:26:42;;;;;;;;;;;;;;;27.89;23.87;103016.47;5014639;28;2093;-20
2022/12/20 01:29:07;;;;;;;;;;;;;;;28.04;23.97;103016.13;5017697;28;1038;-21
2022/12/20 01:31:33;;;;;;;;;;;;;;;28.33;23.54;103020.84;5016963;28;1092;-21
2022/12/20 01:33:59;;;;;;;;;;;;;;;28.30;23.40;103018.38;5006647;28;1124;-20
2022/12/20 01:36:28;;;;;;;;;;;;;;;27.86;24.07;103005.94;5010920;28;1069;-20
2022/12/20 01:38:57;;;;;;;;;;;;;;;27.81;24.05;102990.06;5009471;28;888;-20
2022/12/20 01:41:22;;;;;;;;;;;;;;;27.69;24.39;102997.44;5011814;28;1965;-21
2022/12/20 01:43:47;;;;;;;;;;;;;;;27.43;24.79;102991.50;5009660;28;1115;-21
2022/12/20 01:46:13;;;;;;;;;;;;;;;27.05;25.22;102989.22;5004335;28;1293;-21
2022/12/20 01:48:38;;;;;;;;;;;;;;;27.02;25.11;102986.78;5017345;28;1090;-21
2022/12/20 01:51:03;;;;;;;;;;;;;;;27.12;25.40;102978.75;5017192;28;1027;-21
2022/12/20 01:53:29;;;;;;;;;;;;;;;27.54;24.73;102979.78;5016933;28;1509;-21
2022/12/20 01:55:54;;;;;;;;;;;;;;;27.54;24.78;102977.09;5004685;28;1921;-21
2022/12/20 01:58:19;;;;;;;;;;;;;;;27.59;24.76;102970.28;4996650;28;1086;-21
2022/12/20 02:00:45;;;;;;;;;;;;;;;27.65;24.54;102962.63;5002112;28;1898;-21
2022/12/20 02:03:10;;;;;;;;;;;;;;;27.68;24.21;102962.34;5003757;28;903;-21
2022/12/20 02:05:37;;;;;;;;;;;;;;;27.74;24.19;102961.88;5014316;28;1155;-21
2022/12/20 02:08:02;;;;;;;;;;;;;;;27.74;24.28;102967.28;5004955;28;1092;-21
2022/12/20 02:10:32;;;;;;;;;;;;;;;27.79;24.52;102953.34;5015501;28;1132;-21
2022/12/20 02:12:59;;;;;;;;;;;;;;;27.82;24.13;102953.94;5015565;28;1017;-21
2022/12/20 02:15:31;;;;;;;;;;;;;;;27.84;24.34;102953.81;5009023;28;1063;-21
2022/12/20 02:18:15;;;;;;;;;;;;;;;27.90;24.21;102960.50;4998384;28;1021;-21
2022/12/20 02:20:59;;;;;;;;;;;;;;;27.92;24.06;102955.84;5004488;28;1907;-21
2022/12/20 02:23:33;;;;;;;;;;;;;;;27.96;24.21;102943.78;5000106;28;1160;-20
2022/12/20 02:26:02;;;;;;;;;;;;;;;28.33;23.51;102939.63;5007901;28;2088;-21
2022/12/20 02:28:46;;;;;;;;;;;;;;;28.11;23.87;102936.97;5016038;28;1031;-21
2022/12/20 02:31:12;;;;;;;;;;;;;;;28.38;23.29;102945.50;5016241;28;987;-20
2022/12/20 02:33:38;;;;;;;;;;;;;;;28.14;23.61;102935.00;5016652;28;1052;-20
2022/12/20 02:36:04;;;;;;;;;;;;;;;27.96;23.99;102943.78;5015601;28;1020;-21
2022/12/20 02:38:33;;;;;;;;;;;;;;;27.84;24.13;102949.25;5003827;28;1083;-20
2022/12/20 02:41:04;;;;;;;;;;;;;;;27.74;24.50;102940.25;5002170;28;1965;-21
2022/12/20 02:46:14;;;;;;;;;;;;;;;27.43;24.88;102950.94;5008527;28;1118;-21
2022/12/20 02:48:39;;;;;;;;;;;;;;;27.17;25.43;102936.00;5007687;28;1067;-20
2022/12/20 02:51:05;;;;;;;;;;;;;;;27.11;25.55;102933.81;5009676;28;1056;-21
2022/12/20 02:53:30;;;;;;;;;;;;;;;27.47;24.76;102937.06;4996609;28;1494;-21
2022/12/20 02:55:57;;;;;;;;;;;;;;;27.53;24.91;102934.81;5000932;28;1929;-21
2022/12/20 02:58:37;;;;;;;;;;;;;;;27.56;24.72;102927.28;5003915;28;1172;-21
2022/12/20 03:01:06;;;;;;;;;;;;;;;27.63;24.73;102919.50;4995584;28;1898;-21
2022/12/20 03:03:32;;;;;;;;;;;;;;;27.70;24.75;102926.13;5008167;28;954;-20
2022/12/20 03:05:57;;;;;;;;;;;;;;;27.73;24.59;102928.56;5003788;28;1121;-21
2022/12/20 03:08:23;;;;;;;;;;;;;;;27.78;24.72;102924.63;5015816;28;1124;-20
2022/12/20 03:10:48;;;;;;;;;;;;;;;27.83;24.29;102928.59;5015755;28;1021;-21
2022/12/20 03:13:13;;;;;;;;;;;;;;;27.86;24.57;102932.91;5015791;28;1052;-20
2022/12/20 03:15:39;;;;;;;;;;;;;;;27.91;24.20;102925.22;5002783;28;908;-20
2022/12/20 03:18:04;;;;;;;;;;;;;;;28.21;23.84;102920.78;5016028;28;1160;-27
2022/12/20 03:20:29;;;;;;;;;;;;;;;28.15;23.70;102915.06;5015342;28;1902;-21
2022/12/20 03:22:55;;;;;;;;;;;;;;;28.43;23.50;102910.75;5003029;28;1108;-20
2022/12/20 03:25:20;;;;;;;;;;;;;;;28.20;23.75;102912.78;5001982;28;1929;-20
2022/12/20 03:27:46;;;;;;;;;;;;;;;27.94;23.92;102918.69;5015354;28;885;-20
2022/12/20 03:30:11;;;;;;;;;;;;;;;27.72;24.43;102916.03;5009653;28;882;-20
2022/12/20 03:32:36;;;;;;;;;;;;;;;27.60;24.74;102920.63;5009163;28;1081;-20
2022/12/20 03:35:02;;;;;;;;;;;;;;;27.65;24.67;102916.66;5009371;28;1104;-20
2022/12/20 03:37:27;;;;;;;;;;;;;;;27.60;24.62;102919.78;4996134;28;1061;-20
2022/12/20 03:39:53;;;;;;;;;;;;;;;27.19;25.15;102919.66;5008251;28;1894;-21
2022/12/20 03:42:18;;;;;;;;;;;;;;;27.08;25.38;102923.25;5009469;28;1029;-21
2022/12/20 03:44:43;;;;;;;;;;;;;;;27.20;25.47;102918.66;5015239;28;1100;-21
2022/12/20 03:47:09;;;;;;;;;;;;;;;27.31;25.25;102917.75;5015377;28;991;-20
2022/12/20 03:49:34;;;;;;;;;;;;;;;27.59;24.95;102921.59;5015080;28;1036;-21
2022/12/20 03:51:59;;;;;;;;;;;;;;;27.58;24.69;102919.03;5015285;28;858;-21
2022/12/20 03:54:25;;;;;;;;;;;;;;;27.57;24.90;102923.63;5014988;28;1115;-20
2022/12/20 03:56:50;;;;;;;;;;;;;;;27.67;24.87;102915.56;5015225;28;2255;-20
2022/12/20 03:59:15;;;;;;;;;;;;;;;27.71;24.51;102916.19;5002202;28;1191;-21
2022/12/20 04:01:41;;;;;;;;;;;;;;;27.71;24.56;102908.06;5003169;28;1910;-20
2022/12/20 04:04:06;;;;;;;;;;;;;;;28.02;24.17;102912.59;5014516;28;1159;-21
2022/12/20 04:06:31;;;;;;;;;;;;;;;27.86;24.15;102913.97;5002435;28;1084;-21
2022/12/20 04:08:56;;;;;;;;;;;;;;;27.90;24.11;102920.81;5015006;28;1085;-21
2022/12/20 04:11:22;;;;;;;;;;;;;;;27.93;24.36;102922.38;5015326;28;1127;-21
2022/12/20 04:13:48;;;;;;;;;;;;;;;28.32;23.59;102918.97;5002241;28;1056;-21
2022/12/20 04:16:14;;;;;;;;;;;;;;;28.07;24.02;102911.22;5009986;28;1180;-20
2022/12/20 04:18:39;;;;;;;;;;;;;;;28.27;24.02;102907.69;5000153;28;1192;-20
2022/12/20 04:21:06;;;;;;;;;;;;;;;27.94;23.72;102905.16;5016734;28;1911;-20
2022/12/20 04:23:31;;;;;;;;;;;;;;;27.50;24.13;102909.78;5002733;28;1051;-20
2022/12/20 04:25:56;;;;;;;;;;;;;;;27.49;24.67;102910.75;5010017;28;2240;-21
2022/12/20 04:28:22;;;;;;;;;;;;;;;27.25;25.09;102920.00;5018536;28;1011;-20
2022/12/20 04:30:47;;;;;;;;;;;;;;;27.38;25.10;102917.09;5018607;28;1000;-21
2022/12/20 04:33:12;;;;;;;;;;;;;;;27.54;25.08;102921.19;5019176;28;1040;-20
2022/12/20 04:35:38;;;;;;;;;;;;;;;27.00;25.70;102913.06;5010621;28;1584;-19
2022/12/20 04:38:03;;;;;;;;;;;;;;;26.95;25.88;102913.47;5018680;28;1120;-19
2022/12/20 04:40:28;;;;;;;;;;;;;;;26.96;25.62;102920.56;5002904;28;1914;-19
2022/12/20 04:42:54;;;;;;;;;;;;;;;26.98;25.51;102913.19;5016085;28;1112;-20
2022/12/20 04:45:19;;;;;;;;;;;;;;;27.07;25.78;102925.13;5018317;28;1045;-18
2022/12/20 04:47:44;;;;;;;;;;;;;;;25.82;25.09;102928.81;5014790;28;988;-18
2022/12/20 04:50:09;;;;;;;;;;;;;;;25.65;23.90;102923.78;5008768;28;1016;-18
2022/12/20 04:55:19;;;;;;;;;;;;;;;25.82;21.45;102918.03;5011425;28;1838;-20
2022/12/20 04:57:44;;;;;;;;;;;;;;;25.70;20.54;102907.25;5017552;28;1286;-20
2022/12/20 05:00:10;;;;;;;;;;;;;;;26.36;19.23;102905.66;5004487;28;1895;-20
2022/12/20 05:02:35;;;;;;;;;;;;;;;26.76;18.13;102909.59;5017319;28;1042;-20
2022/12/20 05:05:00;;;;;;;;;;;;;;;26.36;18.20;102911.06;5017444;28;895;-20
2022/12/20 05:07:25;;;;;;;;;;;;;;;27.18;17.40;102918.78;5017652;28;1020;-20
2022/12/20 05:09:51;;;;;;;;;;;;;;;27.59;17.68;102913.50;5017318;28;1005;-20
2022/12/20 05:12:16;;;;;;;;;;;;;;;27.49;19.06;102912.59;5017450;28;1028;-21
2022/12/20 05:14:41;;;;;;;;;;;;;;;27.50;19.55;102911.59;5005895;28;1538;-20
2022/12/20 05:17:08;;;;;;;;;;;;;;;27.65;19.94;102905.84;4998168;28;951;-20
2022/12/20 05:19:33;;;;;;;;;;;;;;;27.51;20.42;102907.91;4997979;28;1910;-20
2022/12/20 05:27:26;;;;;;;;;;;;;;;27.80;21.21;102914.50;5017310;28;1171;-21
2022/12/20 05:29:51;;;;;;;;;;;;;;;27.70;21.77;102922.56;5017487;28;1114;-20
2022/12/20 05:32:16;;;;;;;;;;;;;;;27.73;21.63;102925.84;5006028;28;1052;-21
2022/12/20 05:34:42;;;;;;;;;;;;;;;27.73;22.20;102922.28;5014702;28;1112;-21
2022/12/20 05:37:07;;;;;;;;;;;;;;;28.18;21.85;102921.06;5017249;28;1056;-21
2022/12/20 05:39:32;;;;;;;;;;;;;;;28.16;21.72;102914.09;5017071;28;1972;-21
2022/12/20 05:41:58;;;;;;;;;;;;;;;28.92;20.82;102919.91;5017084;28;1132;-21
2022/12/20 05:44:23;;;;;;;;;;;;;;;28.58;21.41;102907.63;5016610;28;1087;-21
2022/12/20 05:46:48;;;;;;;;;;;;;;;28.68;21.46;102913.06;5016961;28;1140;-21
2022/12/20 05:49:13;;;;;;;;;;;;;;;28.02;22.33;102924.28;5017468;28;1319;-20
2022/12/20 05:51:39;;;;;;;;;;;;;;;27.86;22.61;102931.03;5016349;28;1001;-21
2022/12/20 05:54:04;;;;;;;;;;;;;;;27.77;22.58;102922.88;5017597;28;1112;-21
2022/12/20 05:56:29;;;;;;;;;;;;;;;27.59;23.12;102928.88;5000955;28;2495;-21
2022/12/20 05:58:55;;;;;;;;;;;;;;;27.23;23.42;102921.09;4997322;28;1602;-20
2022/12/20 06:01:21;;;;;;;;;;;;;;;27.22;23.61;102905.88;5007136;28;1890;-21
2022/12/20 06:03:46;;;;;;;;;;;;;;;27.31;23.61;102920.47;5005324;28;1169;-21
2022/12/20 06:06:11;;;;;;;;;;;;;;;27.46;23.57;102923.69;5016898;28;1159;-21
2022/12/20 06:08:37;;;;;;;;;;;;;;;27.55;23.31;102935.53;5016867;28;1104;-21
2022/12/20 06:11:03;;;;;;;;;;;;;;;27.63;23.31;102938.41;5016546;28;1144;-21
2022/12/20 06:13:29;;;;;;;;;;;;;;;27.63;23.52;102933.00;5003656;28;1099;-20
2022/12/20 06:15:54;;;;;;;;;;;;;;;27.72;23.50;102940.38;5006611;28;1111;-20
2022/12/20 06:18:20;;;;;;;;;;;;;;;27.83;23.12;102934.00;4999337;28;1108;-20
2022/12/20 06:20:49;;;;;;;;;;;;;;;27.89;23.10;102927.22;5016034;28;1981;-20
2022/12/20 06:23:14;;;;;;;;;;;;;;;27.97;22.96;102924.69;5016259;28;1108;-20
2022/12/20 06:25:39;;;;;;;;;;;;;;;28.04;23.02;102921.44;5016876;28;2657;-20
2022/12/20 06:28:06;;;;;;;;;;;;;;;28.06;23.09;102933.00;5016364;28;1001;-20
2022/12/20 06:30:31;;;;;;;;;;;;;;;28.40;22.76;102927.28;5016630;28;1080;-19
2022/12/20 06:32:57;;;;;;;;;;;;;;;28.52;22.62;102919.91;5015882;28;1523;-20
2022/12/20 06:35:22;;;;;;;;;;;;;;;28.50;22.63;102926.44;5015669;28;1228;-20
2022/12/20 06:37:47;;;;;;;;;;;;;;;28.52;22.45;102930.72;5015983;28;1318;-20
2022/12/20 06:40:13;;;;;;;;;;;;;;;28.39;22.63;102928.28;5012958;28;1898;-19
2022/12/20 06:42:38;;;;;;;;;;;;;;;28.02;23.20;102934.25;5009137;28;910;-19
2022/12/20 06:45:03;;;;;;;;;;;;;;;27.70;23.81;102936.94;5011930;28;1316;-20
2022/12/20 06:47:29;;;;;;;;;;;;;;;27.77;23.78;102934.56;5004015;28;1042;-20
2022/12/20 06:49:54;;;;;;;;;;;;;;;27.87;23.57;102934.59;5015559;28;1200;-19
2022/12/20 06:52:19;;;;;;;;;;;;;;;27.49;23.99;102924.25;5014116;28;1047;-19
2022/12/20 06:54:45;;;;;;;;;;;;;;;27.38;24.54;102924.31;5015564;28;1909;-20
2022/12/20 06:57:10;;;;;;;;;;;;;;;27.35;24.02;102906.53;5016039;28;1021;-19
2022/12/20 06:59:35;;;;;;;;;;;;;;;27.56;24.23;102932.69;5007202;28;1958;-20
2022/12/20 07:02:00;;;;;;;;;;;;;;;27.69;23.87;102931.66;5009997;28;1068;-19
2022/12/20 07:04:26;;;;;;;;;;;;;;;27.74;24.06;102930.25;5007731;28;1172;-19
2022/12/20 07:06:51;;;;;;;;;;;;;;;27.72;24.21;102932.25;5013698;28;1001;-19
2022/12/20 07:09:17;;;;;;;;;;;;;;;27.87;23.76;102927.34;5015559;28;1048;-19
2022/12/20 07:11:42;;;;;;;;;;;;;;;27.96;23.61;102911.31;5015153;28;1239;-20
2022/12/20 07:14:07;;;;;;;;;;;;;;;28.14;23.40;102927.75;5003817;28;1045;-20
2022/12/20 07:16:33;;;;;;;;;;;;;;;28.23;23.34;102920.63;5000186;28;1012;-20
2022/12/20 07:18:58;;;;;;;;;;;;;;;28.47;23.37;102922.16;5003396;28;1088;-20
2022/12/20 07:21:23;;;;;;;;;;;;;;;28.56;23.03;102921.31;5014978;28;1978;-19
2022/12/20 07:23:49;;;;;;;;;;;;;;;28.60;23.10;102919.19;5014944;28;1227;-19
2022/12/20 07:26:14;;;;;;;;;;;;;;;28.89;22.95;102922.91;5003773;28;1979;-19
2022/12/20 07:28:39;;;;;;;;;;;;;;;28.98;22.49;102913.94;5010840;28;1196;-19
2022/12/20 07:31:05;;;;;;;;;;;;;;;28.99;22.43;102902.13;5009946;28;1235;-19
2022/12/20 07:33:30;;;;;;;;;;;;;;;28.63;23.27;102915.34;5015954;28;1220;-19
2022/12/20 07:36:00;;;;;;;;;;;;;;;28.41;23.55;102896.50;5008391;28;1124;-19
2022/12/20 07:38:25;;;;;;;;;;;;;;;28.48;23.62;102886.81;5008643;28;1076;-19
2022/12/20 07:40:50;;;;;;;;;;;;;;;28.52;23.36;102883.84;5014899;28;1906;-20
2022/12/20 07:43:16;;;;;;;;;;;;;;;28.29;23.83;102882.22;5002889;28;1120;-20
2022/12/20 07:45:41;;;;;;;;;;;;;;;28.17;23.87;102884.19;5008931;28;1073;-20
2022/12/20 07:48:07;;;;;;;;;;;;;;;28.61;23.18;102885.72;5008509;28;1116;-19
2022/12/20 07:50:32;;;;;;;;;;;;;;;28.39;23.33;102889.53;5008595;28;1105;-19
2022/12/20 07:52:58;;;;;;;;;;;;;;;28.51;23.49;102882.97;5001676;28;1184;-19
2022/12/20 07:55:23;;;;;;;;;;;;;;;28.56;23.52;102875.28;5004697;28;1857;-19
2022/12/20 07:57:52;;;;;;;;;;;;;;;28.58;23.42;102869.72;5015298;28;1182;-19
2022/12/20 08:00:20;;;;;;;;;;;;;;;28.24;23.67;102881.78;5017710;28;1934;-19
2022/12/20 08:03:08;;;;;;;;;;;;;;;28.30;23.55;102881.22;5018800;28;1184;-19
2022/12/20 08:05:34;;;;;;;;;;;;;;;28.92;23.04;102880.16;5001920;28;1634;-20
2022/12/20 08:07:59;;;;;;;;;;;;;;;28.75;23.30;102875.44;5018690;28;1228;-20
2022/12/20 08:10:25;;;;;;;;;;;;;;;28.95;23.24;102881.69;5018961;28;1306;-19
2022/12/20 08:12:50;;;;;;;;;;;;;;;29.11;22.75;102878.47;5018528;28;1097;-19
2022/12/20 08:15:15;;;;;;;;;;;;;;;29.14;22.74;102880.88;5017630;28;1185;-19
2022/12/20 08:17:41;;;;;;;;;;;;;;;28.63;23.63;102872.88;5017154;28;1244;-19
2022/12/20 08:20:07;;;;;;;;;;;;;;;28.51;24.04;102868.59;5016155;28;1969;-19
2022/12/20 08:22:32;;;;;;;;;;;;;;;28.62;24.08;102868.47;5018602;28;1272;-20
2022/12/20 08:24:59;;;;;;;;;;;;;;;28.79;23.75;102874.16;5014448;28;1774;-19
2022/12/20 08:27:24;;;;;;;;;;;;;;;28.55;23.71;102873.59;5003689;28;1256;-19
2022/12/20 08:29:50;;;;;;;;;;;;;;;28.61;23.52;102872.19;5005856;28;1171;-20
2022/12/20 08:32:15;;;;;;;;;;;;;;;29.13;23.04;102867.47;4998908;28;1279;-19
2022/12/20 08:34:40;;;;;;;;;;;;;;;28.70;23.86;102863.19;5013412;28;1021;-20
2022/12/20 08:37:06;;;;;;;;;;;;;;;28.76;23.73;102860.91;4999608;28;1066;-20
2022/12/20 08:39:31;;;;;;;;;;;;;;;28.90;23.39;102854.19;4999127;28;1025;-19
2022/12/20 08:41:56;;;;;;;;;;;;;;;28.92;23.34;102827.81;5009068;28;2057;-19
2022/12/20 08:44:21;;;;;;;;;;;;;;;29.34;22.89;102845.59;5027196;28;1004;-20
2022/12/20 08:46:47;;;;;;;;;;;;;;;28.90;23.28;102844.22;5018574;28;1094;-20
2022/12/20 08:49:12;;;;;;;;;;;;;;;28.52;24.11;102833.25;5018170;28;1116;-20
2022/12/20 08:51:38;;;;;;;;;;;;;;;28.54;24.29;102830.41;5018001;28;1043;-19
2022/12/20 08:54:03;;;;;;;;;;;;;;;28.87;23.85;102828.25;5003502;28;1084;-19
2022/12/20 08:56:29;;;;;;;;;;;;;;;29.27;22.97;102826.34;4999781;28;1811;-19
2022/12/20 08:58:54;;;;;;;;;;;;;;;29.19;23.18;102827.09;5005871;28;1149;-20
2022/12/20 09:01:20;;;;;;;;;;;;;;;28.90;23.89;102816.25;5012888;28;1902;-20
2022/12/20 09:03:46;;;;;;;;;;;;;;;29.18;23.19;102819.06;5015698;28;1185;-20
2022/12/20 09:06:12;;;;;;;;;;;;;;;29.40;22.82;102817.88;5012407;28;1134;-24
2022/12/20 09:08:38;;;;;;;;;;;;;;;28.15;23.86;102702.16;5008939;28;1266;-20
2022/12/20 09:11:13;;;;;;;;;;;;;;;28.47;24.54;102801.19;5007683;28;966;-20
2022/12/20 09:13:39;;;;;;;;;;;;;;;28.58;24.29;102797.47;5012699;28;949;-20
2022/12/20 09:16:05;;;;;;;;;;;;;;;28.88;23.93;102786.59;5023569;28;1460;-20
2022/12/20 09:18:30;;;;;;;;;;;;;;;29.46;23.21;102790.16;5020800;28;1061;-19
2022/12/20 09:20:58;;;;;;;;;;;;;;;29.22;23.50;102785.28;5006301;28;1902;-20
2022/12/20 09:23:23;;;;;;;;;;;;;;;28.65;23.90;102792.34;4999423;28;1248;-20
2022/12/20 09:25:48;;;;;;;;;;;;;;;28.83;23.62;102792.47;5011475;28;1814;-20
2022/12/20 09:28:14;;;;;;;;;;;;;;;29.01;22.73;102790.91;5017826;28;1183;-19
2022/12/20 09:30:39;;;;;;;;;;;;;;;29.05;22.85;102785.03;5017265;28;936;-20
2022/12/20 09:33:04;;;;;;;;;;;;;;;28.56;23.80;102779.69;5016252;28;1117;-20
2022/12/20 09:35:32;;;;;;;;;;;;;;;28.47;23.53;102774.13;5016516;28;1061;-20
2022/12/20 09:37:57;;;;;;;;;;;;;;;28.64;23.43;102766.28;5005047;28;1091;-20
2022/12/20 09:40:23;;;;;;;;;;;;;;;28.80;23.37;102768.38;5017566;28;1973;-20
2022/12/20 09:42:48;;;;;;;;;;;;;;;28.50;23.47;102766.69;5007627;28;903;-20
2022/12/20 09:45:19;;;;;;;;;;;;;;;28.87;22.94;102762.38;5016524;28;1124;-20
2022/12/20 09:47:45;;;;;;;;;;;;;;;28.93;22.92;102753.66;5004726;28;1053;-20
2022/12/20 09:50:13;;;;;;;;;;;;;;;28.91;22.68;102750.25;5016947;28;1100;-20
2022/12/20 09:52:41;;;;;;;;;;;;;;;28.90;22.91;102740.41;5007919;28;1021;-20
2022/12/20 09:55:25;;;;;;;;;;;;;;;28.63;23.10;102745.59;5009446;28;1839;-20
2022/12/20 09:58:09;;;;;;;;;;;;;;;28.51;23.68;102741.34;5017186;28;1008;-20
2022/12/20 10:00:35;;;;;;;;;;;;;;;28.66;23.42;102734.47;5016472;28;1890;-20
2022/12/20 10:03:04;;;;;;;;;;;;;;;28.69;22.50;102727.94;5016791;28;1152;-20
2022/12/20 10:05:34;;;;;;;;;;;;;;;28.54;23.17;102727.53;5015144;28;1143;-20
2022/12/20 10:08:02;;;;;;;;;;;;;;;28.28;23.42;102718.09;5017643;28;1034;-20
2022/12/20 10:10:27;;;;;;;;;;;;;;;28.41;23.45;102719.72;4999468;28;1131;-20
2022/12/20 10:12:53;;;;;;;;;;;;;;;28.53;23.21;102713.13;5008014;28;1099;-20
2022/12/20 10:15:20;;;;;;;;;;;;;;;28.52;22.90;102713.28;5015817;28;987;-20
2022/12/20 10:17:55;;;;;;;;;;;;;;;28.32;23.06;102708.72;5012945;28;1259;-21
2022/12/20 10:20:23;;;;;;;;;;;;;;;28.19;23.54;102705.44;5016000;28;1894;-20
2022/12/20 10:22:53;;;;;;;;;;;;;;;28.39;22.94;102705.47;5016367;28;1052;-20
2022/12/20 10:25:19;;;;;;;;;;;;;;;28.65;23.01;102700.28;5013001;28;1050;-20
2022/12/20 10:27:44;;;;;;;;;;;;;;;28.75;22.83;102684.00;4996206;28;1219;-20
2022/12/20 10:30:14;;;;;;;;;;;;;;;28.56;22.77;102693.03;4996251;28;1260;-20
2022/12/20 10:32:39;;;;;;;;;;;;;;;28.26;23.30;102686.78;4996759;28;1181;-21
2022/12/20 10:35:15;;;;;;;;;;;;;;;28.24;23.54;102673.41;5012070;28;1244;-20
2022/12/20 10:37:55;;;;;;;;;;;;;;;28.48;23.34;102675.66;5011758;28;1196;-20
2022/12/20 10:40:27;;;;;;;;;;;;;;;28.64;22.99;102668.78;5015240;28;1977;-20
2022/12/20 10:42:53;;;;;;;;;;;;;;;28.34;23.54;102663.41;5015957;28;1263;-20
2022/12/20 10:45:18;;;;;;;;;;;;;;;28.50;23.13;102656.56;5015094;28;1120;-20
2022/12/20 10:47:44;;;;;;;;;;;;;;;29.00;22.08;102657.28;5012318;28;1017;-20
2022/12/20 10:50:13;;;;;;;;;;;;;;;28.93;22.53;102656.13;5007063;28;1100;-20
2022/12/20 10:52:38;;;;;;;;;;;;;;;29.15;22.12;102643.22;5015536;28;1032;-20
2022/12/20 10:55:06;;;;;;;;;;;;;;;29.06;22.14;102642.28;5011385;28;1825;-20
2022/12/20 10:57:32;;;;;;;;;;;;;;;28.82;22.83;102651.75;4999458;28;1213;-19
2022/12/20 11:00:00;;;;;;;;;;;;;;;28.73;22.90;102638.13;5015930;28;1965;-20
2022/12/20 11:02:30;;;;;;;;;;;;;;;29.00;22.27;102634.75;5015462;28;1132;-19
2022/12/20 11:04:59;;;;;;;;;;;;;;;29.15;21.87;102629.66;5016534;28;1175;-20
2022/12/20 11:07:25;;;;;;;;;;;;;;;28.93;22.75;102631.75;5010189;28;1215;-19
2022/12/20 11:09:51;;;;;;;;;;;;;;;28.72;22.95;102619.31;5008891;28;1033;-19
2022/12/20 11:12:17;;;;;;;;;;;;;;;29.08;22.09;102614.03;5015651;28;1033;-20
2022/12/20 11:14:43;;;;;;;;;;;;;;;29.36;21.96;102617.72;5016206;28;1035;-20
2022/12/20 11:17:14;;;;;;;;;;;;;;;29.05;22.42;102611.63;5015662;28;1040;-20
2022/12/20 11:19:39;;;;;;;;;;;;;;;28.49;23.10;102603.44;5015697;28;1994;-20
2022/12/20 11:22:17;;;;;;;;;;;;;;;28.77;22.77;102602.59;5011338;28;1043;-20
2022/12/20 11:24:52;;;;;;;;;;;;;;;29.12;22.09;102608.31;5012767;28;1899;-20
2022/12/20 11:27:41;;;;;;;;;;;;;;;29.43;22.06;102597.09;5001725;28;1117;-19
2022/12/20 11:30:13;;;;;;;;;;;;;;;28.99;23.09;102592.41;4992550;28;1405;-20
2022/12/20 11:32:51;;;;;;;;;;;;;;;29.23;22.27;102593.69;5015038;28;1096;-20
2022/12/20 11:35:16;;;;;;;;;;;;;;;29.11;22.89;102584.94;5020004;28;1052;-20
2022/12/20 11:38:00;;;;;;;;;;;;;;;28.60;23.31;102580.72;5000759;28;1136;-18
2022/12/20 11:40:32;;;;;;;;;;;;;;;28.69;23.56;102579.84;5008009;28;1914;-18
2022/12/20 11:43:15;;;;;;;;;;;;;;;29.09;22.49;102571.53;5014153;28;970;-19
2022/12/20 11:45:44;;;;;;;;;;;;;;;29.24;22.21;102565.59;5017273;28;1157;-18
2022/12/20 11:48:15;;;;;;;;;;;;;;;28.92;22.94;102565.03;5018523;28;1011;-18
2022/12/20 11:50:40;;;;;;;;;;;;;;;29.07;22.64;102558.16;5006849;28;1064;-18
2022/12/20 11:53:26;;;;;;;;;;;;;;;29.04;22.38;102563.00;5019112;28;1115;-19
2022/12/20 11:55:52;;;;;;;;;;;;;;;28.52;23.36;102557.09;5013968;28;1837;-19
2022/12/20 11:58:19;;;;;;;;;;;;;;;28.38;23.90;102553.03;5009204;28;1104;-18
2022/12/20 12:00:53;;;;;;;;;;;;;;;28.46;23.73;102549.59;5006189;28;1980;-19
2022/12/20 12:03:21;;;;;;;;;;;;;;;28.83;22.90;102539.69;5018138;28;1068;-18
2022/12/20 12:05:51;;;;;;;;;;;;;;;29.20;22.20;102546.94;5013226;28;1088;-18
2022/12/20 12:08:17;;;;;;;;;;;;;;;29.00;23.01;102539.91;5010597;28;963;-18
2022/12/20 12:10:44;;;;;;;;;;;;;;;29.16;22.60;102533.84;5014966;28;1162;-18
2022/12/20 12:13:12;;;;;;;;;;;;;;;29.02;22.63;102541.50;5007025;28;1085;-18
2022/12/20 12:15:41;;;;;;;;;;;;;;;28.78;23.37;102542.03;5016998;28;1148;-18
2022/12/20 12:18:14;;;;;;;;;;;;;;;28.39;23.96;102546.63;5015343;28;1017;-18
2022/12/20 12:20:39;;;;;;;;;;;;;;;28.54;23.64;102538.00;5016590;28;1975;-18
2022/12/20 12:23:37;;;;;;;;;;;;;;;28.84;23.41;102533.31;5000932;28;1089;-19
2022/12/20 12:26:04;;;;;;;;;;;;;;;29.02;22.99;102530.66;4990385;28;1934;-18
2022/12/20 12:28:29;;;;;;;;;;;;;;;28.80;23.64;102532.75;5014601;28;1212;-18
2022/12/20 12:30:56;;;;;;;;;;;;;;;28.79;23.70;102528.34;5015784;28;1100;-18
2022/12/20 12:33:33;;;;;;;;;;;;;;;28.79;23.24;102530.19;5017576;28;1180;-18
2022/12/20 12:36:07;;;;;;;;;;;;;;;28.63;23.63;102530.84;5008351;28;1109;-19
2022/12/20 12:38:45;;;;;;;;;;;;;;;28.26;24.24;102530.66;5015025;28;1124;-18
2022/12/20 12:41:17;;;;;;;;;;;;;;;28.18;24.79;102526.00;5009440;28;1894;-18
2022/12/20 12:43:43;;;;;;;;;;;;;;;28.45;24.26;102527.06;5009301;28;1302;-19
2022/12/20 12:46:13;;;;;;;;;;;;;;;28.48;24.13;102524.06;5018660;28;1184;-18
2022/12/20 12:48:43;;;;;;;;;;;;;;;28.11;24.88;102530.31;5017085;28;1125;-18
2022/12/20 12:51:08;;;;;;;;;;;;;;;28.35;24.37;102516.28;5016648;28;1032;-18
2022/12/20 12:53:40;;;;;;;;;;;;;;;28.52;24.23;102526.47;5016655;28;1069;-18
2022/12/20 12:56:24;;;;;;;;;;;;;;;28.80;24.11;102526.47;5009928;28;1945;-19
2022/12/20 12:59:05;;;;;;;;;;;;;;;28.70;23.56;102524.69;5008740;28;1242;-19